Pagrindinis puslapis
METAR-TAF:

METAR-TAF

Oro uostai :

Tartu, Estija

platuma: 58-18N, ilguma: 026-44E, Aukštis: 59 m

Dabartinis oras

Ataskaita buvo paskelbta 21 minutes, ne 14:50 UTC
Vėjas 10 kt iš Pietų/Pietryčių, svyruoja nuo Pietryčių ir Pietų
Temperatūra 10°C
Drėgmė 66%
Slėgis 1002 hPa
Matomumas 10 km arba daugiau
Išsisklaidę debesys ne aukštis 3100 ft

METAR: EETU 231450Z 15010KT 130V190 9999 SCT031 10/04 Q1002

Laikas: 18:11 (15:11 UTC)


TAF: trūkstamas

Orai ataskaitas ir orų prognozės (METAR, TAF).

turimą stotys yra geltonos ir raudonos taškus žemėlapyje.

Perkelti pele per norėdami pamatyti stoties vardą.

Tada spustelėkite, norėdami matyti oro stebėjimo ir prognozės.

Norėdami pakeisti žemėlapį: spustelėkite ant žalios mygtukų su juodo kryžiaus žemyn,; žalią mygtuką su brūkšneliu, jei norite nutolinti; arba žalių rodyklių gretimoms žemėlapius.


METAR-TAF: